Time,TemperatureF,DewpointF,PressureIn,WindDirection,WindDirectionDegrees,WindSpeedMPH,WindSpeedGustMPH,Humidity,HourlyPrecipIn,Conditions,Clouds,dailyrainin,SoftwareType,DateUTC
2013-07-26 00:11:00,66.0,65.4,29.89,North,0,0.0,-999.0,98,-99.99,,,0.00,Acu-Link.com,2013-07-26 04:11:00,
2013-07-26 00:26:00,65.7,65.1,29.89,North,0,0.0,-999.0,98,-99.99,,,0.00,Acu-Link.com,2013-07-26 04:26:00,
2013-07-26 00:41:00,65.3,64.7,29.89,North,0,0.0,-999.0,98,-99.99,,,0.00,Acu-Link.com,2013-07-26 04:41:00,
2013-07-26 00:56:00,64.8,64.5,29.89,North,0,0.0,-999.0,99,-99.99,,,0.00,Acu-Link.com,2013-07-26 04:56:00,
2013-07-26 01:12:00,64.2,63.9,29.89,North,0,0.0,-999.0,99,-99.99,,,0.00,Acu-Link.com,2013-07-26 05:12:00,
2013-07-26 01:27:00,64.0,63.7,29.89,North,0,0.0,-999.0,99,-99.99,,,0.00,Acu-Link.com,2013-07-26 05:27:00,
2013-07-26 01:42:00,63.7,63.4,29.88,North,0,0.0,-999.0,99,-99.99,,,0.00,Acu-Link.com,2013-07-26 05:42:00,
2013-07-26 01:57:00,63.3,63.0,29.88,North,0,0.0,-999.0,99,-99.99,,,0.00,Acu-Link.com,2013-07-26 05:57:00,
2013-07-26 02:12:00,63.1,62.8,29.86,North,0,0.0,-999.0,99,-99.99,,,0.00,Acu-Link.com,2013-07-26 06:12:00,
2013-07-26 02:28:00,63.0,62.7,29.87,North,0,0.0,-999.0,99,-99.99,,,0.00,Acu-Link.com,2013-07-26 06:28:00,
2013-07-26 02:43:00,62.4,62.1,29.87,North,0,0.0,-999.0,99,-99.99,,,0.00,Acu-Link.com,2013-07-26 06:43:00,
2013-07-26 02:58:00,62.2,61.9,29.87,NNE,22,0.0,-999.0,99,-99.99,,,0.00,Acu-Link.com,2013-07-26 06:58:00,
2013-07-26 03:13:00,62.1,61.8,29.86,ESE,112,0.0,-999.0,99,-99.99,,,0.00,Acu-Link.com,2013-07-26 07:13:00,
2013-07-26 03:28:00,61.7,61.4,29.87,ESE,112,0.0,-999.0,99,-99.99,,,0.00,Acu-Link.com,2013-07-26 07:28:00,
2013-07-26 03:44:00,61.5,61.2,29.86,ESE,112,0.0,-999.0,99,-99.99,,,0.00,Acu-Link.com,2013-07-26 07:44:00,
2013-07-26 03:59:00,61.2,60.9,29.87,ESE,112,0.0,-999.0,99,-99.99,,,0.00,Acu-Link.com,2013-07-26 07:59:00,
2013-07-26 04:14:00,61.2,60.9,29.87,North,0,0.0,-999.0,99,-99.99,,,0.00,Acu-Link.com,2013-07-26 08:14:00,
2013-07-26 04:29:00,61.2,60.9,29.88,North,0,0.0,-999.0,99,-99.99,,,0.00,Acu-Link.com,2013-07-26 08:29:00,
2013-07-26 04:44:00,61.0,60.7,29.88,North,0,0.0,-999.0,99,-99.99,,,0.00,Acu-Link.com,2013-07-26 08:44:00,
2013-07-26 04:59:00,60.8,60.5,29.88,North,0,0.0,-999.0,99,-99.99,,,0.00,Acu-Link.com,2013-07-26 08:59:00,
2013-07-26 05:15:00,60.4,60.1,29.89,North,0,0.0,-999.0,99,-99.99,,,0.00,Acu-Link.com,2013-07-26 09:15:00,
2013-07-26 05:30:00,60.1,59.8,29.90,North,0,0.0,-999.0,99,-99.99,,,0.00,Acu-Link.com,2013-07-26 09:30:00,
2013-07-26 05:45:00,60.1,59.8,29.90,North,0,0.0,-999.0,99,-99.99,,,0.00,Acu-Link.com,2013-07-26 09:45:00,
2013-07-26 06:00:00,59.7,59.4,29.91,North,0,0.0,-999.0,99,-99.99,,,0.00,Acu-Link.com,2013-07-26 10:00:00,
2013-07-26 06:15:00,59.5,59.2,29.92,North,0,0.0,-999.0,99,-99.99,,,0.00,Acu-Link.com,2013-07-26 10:15:00,
2013-07-26 06:31:00,59.5,59.2,29.92,North,0,0.0,-999.0,99,-99.99,,,0.00,Acu-Link.com,2013-07-26 10:31:00,
2013-07-26 07:01:00,60.1,59.8,29.93,North,0,0.0,-999.0,99,-99.99,,,0.00,Acu-Link.com,2013-07-26 11:01:00,
2013-07-26 07:32:00,61.0,60.7,29.92,North,0,0.0,-999.0,99,-99.99,,,0.00,Acu-Link.com,2013-07-26 11:32:00,
2013-07-26 07:47:00,61.9,61.6,29.92,SSE,157,0.0,-999.0,99,-99.99,,,0.00,Acu-Link.com,2013-07-26 11:47:00,
2013-07-26 08:02:00,63.1,62.8,29.93,SSE,157,0.0,-999.0,99,-99.99,,,0.00,Acu-Link.com,2013-07-26 12:02:00,
2013-07-26 08:17:00,64.4,64.1,29.94,SSE,157,0.0,-999.0,99,-99.99,,,0.00,Acu-Link.com,2013-07-26 12:17:00,
2013-07-26 08:32:00,66.0,64.8,29.94,NNW,337,0.0,-999.0,96,-99.99,,,0.00,Acu-Link.com,2013-07-26 12:32:00,
2013-07-26 08:48:00,67.3,64.9,29.95,North,0,0.0,-999.0,92,-99.99,,,0.00,Acu-Link.com,2013-07-26 12:48:00,
2013-07-26 09:03:00,68.2,64.2,29.96,WSW,247,2.2,-999.0,87,-99.99,,,0.00,Acu-Link.com,2013-07-26 13:03:00,
2013-07-26 09:18:00,69.1,63.4,29.96,SW,225,0.0,-999.0,82,-99.99,,,0.00,Acu-Link.com,2013-07-26 13:18:00,
2013-07-26 09:33:00,70.9,64.1,29.96,SW,225,0.0,-999.0,79,-99.99,,,0.00,Acu-Link.com,2013-07-26 13:33:00,
2013-07-26 09:48:00,72.5,63.3,29.96,West,270,0.0,-999.0,73,-99.99,,,0.00,Acu-Link.com,2013-07-26 13:48:00,
2013-07-26 10:04:00,73.9,63.5,29.97,SE,135,0.0,-999.0,70,-99.99,,,0.00,Acu-Link.com,2013-07-26 14:04:00,
2013-07-26 10:19:00,74.3,62.6,29.97,WSW,247,0.0,-999.0,67,-99.99,,,0.00,Acu-Link.com,2013-07-26 14:19:00,
2013-07-26 10:34:00,75.7,63.5,29.97,WSW,247,1.1,-999.0,66,-99.99,,,0.00,Acu-Link.com,2013-07-26 14:34:00,
2013-07-26 10:49:00,76.5,62.9,29.97,NW,315,2.7,-999.0,63,-99.99,,,0.00,Acu-Link.com,2013-07-26 14:49:00,
2013-07-26 11:04:00,77.7,62.2,29.98,NW,315,1.7,-999.0,59,-99.99,,,0.00,Acu-Link.com,2013-07-26 15:04:00,
2013-07-26 11:20:00,78.8,62.3,29.96,WNW,292,2.2,-999.0,57,-99.99,,,0.00,Acu-Link.com,2013-07-26 15:20:00,
2013-07-26 11:35:00,78.8,63.7,29.95,NW,315,2.2,-999.0,60,-99.99,,,0.00,Acu-Link.com,2013-07-26 15:35:00,
2013-07-26 11:50:00,79.7,64.1,29.97,NE,45,0.0,-999.0,59,-99.99,,,0.00,Acu-Link.com,2013-07-26 15:50:00,
2013-07-26 12:05:00,81.7,62.3,29.96,SSE,157,1.7,-999.0,52,-99.99,,,0.00,Acu-Link.com,2013-07-26 16:05:00,
2013-07-26 12:20:00,81.1,63.4,29.96,West,270,2.7,-999.0,55,-99.99,,,0.00,Acu-Link.com,2013-07-26 16:20:00,
2013-07-26 12:36:00,81.9,61.4,29.96,WSW,247,1.7,-999.0,50,-99.99,,,0.00,Acu-Link.com,2013-07-26 16:36:00,
2013-07-26 12:51:00,81.7,63.9,29.96,NNE,22,1.7,-999.0,55,-99.99,,,0.00,Acu-Link.com,2013-07-26 16:51:00,
2013-07-26 13:06:00,82.6,63.7,29.96,ESE,112,2.2,-999.0,53,-99.99,,,0.00,Acu-Link.com,2013-07-26 17:06:00,
2013-07-26 13:21:00,84.4,64.3,29.96,South,180,2.7,-999.0,51,-99.99,,,0.00,Acu-Link.com,2013-07-26 17:21:00,
2013-07-26 13:37:00,84.2,64.6,29.96,West,270,1.7,-999.0,52,-99.99,,,0.00,Acu-Link.com,2013-07-26 17:37:00,
2013-07-26 13:52:00,80.6,64.4,29.96,SSW,202,0.0,-999.0,58,-99.99,,,0.00,Acu-Link.com,2013-07-26 17:52:00,
2013-07-26 14:07:00,84.2,64.6,29.96,West,270,1.7,-999.0,52,-99.99,,,0.00,Acu-Link.com,2013-07-26 18:07:00,
2013-07-26 14:22:00,81.1,64.4,29.95,NNW,337,2.2,-999.0,57,-99.99,,,0.00,Acu-Link.com,2013-07-26 18:22:00,
2013-07-26 14:37:00,83.8,63.7,29.95,NNE,22,2.2,-999.0,51,-99.99,,,0.00,Acu-Link.com,2013-07-26 18:37:00,
2013-07-26 14:53:00,84.6,66.6,29.94,SSE,157,2.7,-999.0,55,-99.99,,,0.00,Acu-Link.com,2013-07-26 18:53:00,
2013-07-26 15:08:00,85.8,65.5,29.94,NW,315,2.7,-999.0,51,-99.99,,,0.00,Acu-Link.com,2013-07-26 19:08:00,
2013-07-26 15:23:00,84.7,64.5,29.93,NNE,22,2.2,-999.0,51,-99.99,,,0.00,Acu-Link.com,2013-07-26 19:23:00,
2013-07-26 15:38:00,84.7,65.6,29.93,West,270,0.0,-999.0,53,-99.99,,,0.00,Acu-Link.com,2013-07-26 19:38:00,
2013-07-26 15:53:00,84.0,63.9,29.93,WNW,292,1.7,-999.0,51,-99.99,,,0.00,Acu-Link.com,2013-07-26 19:53:00,
2013-07-26 16:09:00,81.7,67.4,29.93,SSW,202,2.7,-999.0,62,-99.99,,,0.00,Acu-Link.com,2013-07-26 20:09:00,
2013-07-26 16:24:00,84.6,65.6,29.92,West,270,2.2,-999.0,53,-99.99,,,0.00,Acu-Link.com,2013-07-26 20:24:00,
2013-07-26 16:39:00,86.5,66.8,29.92,South,180,0.0,-999.0,52,-99.99,,,0.00,Acu-Link.com,2013-07-26 20:39:00,
2013-07-26 16:54:00,84.9,69.4,29.92,South,180,0.0,-999.0,60,-99.99,,,0.00,Acu-Link.com,2013-07-26 20:54:00,
2013-07-26 17:09:00,84.0,69.6,29.91,South,180,0.0,-999.0,62,-99.99,,,0.00,Acu-Link.com,2013-07-26 21:09:00,
2013-07-26 17:25:00,84.2,67.8,29.91,SSW,202,0.0,-999.0,58,-99.99,,,0.00,Acu-Link.com,2013-07-26 21:25:00,
2013-07-26 17:40:00,84.6,65.6,29.91,NW,315,1.1,-999.0,53,-99.99,,,0.00,Acu-Link.com,2013-07-26 21:40:00,
2013-07-26 17:55:00,91.6,67.8,29.90,SSW,202,2.7,-999.0,46,-99.99,,,0.00,Acu-Link.com,2013-07-26 21:55:00,
2013-07-26 18:10:00,90.9,67.8,29.89,SSE,157,1.7,-999.0,47,-99.99,,,0.00,Acu-Link.com,2013-07-26 22:10:00,
2013-07-26 18:26:00,90.9,67.8,29.89,SSW,202,1.7,-999.0,47,-99.99,,,0.00,Acu-Link.com,2013-07-26 22:26:00,
2013-07-26 18:41:00,90.7,68.3,29.89,South,180,0.0,-999.0,48,-99.99,,,0.00,Acu-Link.com,2013-07-26 22:41:00,
2013-07-26 18:56:00,89.6,70.7,29.90,South,180,1.1,-999.0,54,-99.99,,,0.00,Acu-Link.com,2013-07-26 22:56:00,
2013-07-26 19:11:00,90.0,70.5,29.90,South,180,0.0,-999.0,53,-99.99,,,0.00,Acu-Link.com,2013-07-26 23:11:00,
2013-07-26 19:42:00,82.6,70.5,29.91,SE,135,0.0,-999.0,67,-99.99,,,0.00,Acu-Link.com,2013-07-26 23:42:00,
2013-07-26 19:57:00,80.2,70.3,29.91,SE,135,0.0,-999.0,72,-99.99,,,0.00,Acu-Link.com,2013-07-26 23:57:00,
2013-07-26 20:12:00,77.7,69.9,29.91,SE,135,0.0,-999.0,77,-99.99,,,0.00,Acu-Link.com,2013-07-27 00:12:00,
2013-07-26 20:27:00,76.1,69.5,29.91,SE,135,0.0,-999.0,80,-99.99,,,0.00,Acu-Link.com,2013-07-27 00:27:00,
2013-07-26 20:42:00,74.7,69.5,29.91,SE,135,0.0,-999.0,84,-99.99,,,0.00,Acu-Link.com,2013-07-27 00:42:00,
2013-07-26 20:58:00,73.2,69.1,29.91,SE,135,0.0,-999.0,87,-99.99,,,0.00,Acu-Link.com,2013-07-27 00:58:00,
2013-07-26 21:13:00,72.5,68.7,29.92,SE,135,0.0,-999.0,88,-99.99,,,0.00,Acu-Link.com,2013-07-27 01:13:00,
2013-07-26 21:28:00,71.6,68.2,29.92,SE,135,0.0,-999.0,89,-99.99,,,0.00,Acu-Link.com,2013-07-27 01:28:00,
2013-07-26 21:43:00,70.9,68.1,29.92,SE,135,0.0,-999.0,91,-99.99,,,0.00,Acu-Link.com,2013-07-27 01:43:00,
2013-07-26 21:58:00,70.3,67.9,29.92,SE,135,0.0,-999.0,92,-99.99,,,0.00,Acu-Link.com,2013-07-27 01:58:00,
2013-07-26 22:14:00,69.6,67.5,29.93,SE,135,0.0,-999.0,93,-99.99,,,0.00,Acu-Link.com,2013-07-27 02:14:00,
2013-07-26 22:29:00,69.3,67.5,29.92,SE,135,0.0,-999.0,94,-99.99,,,0.00,Acu-Link.com,2013-07-27 02:29:00,
2013-07-26 22:44:00,68.7,67.5,29.92,SE,135,0.0,-999.0,96,-99.99,,,0.00,Acu-Link.com,2013-07-27 02:44:00,
2013-07-26 22:59:00,68.2,67.0,29.93,SE,135,0.0,-999.0,96,-99.99,,,0.00,Acu-Link.com,2013-07-27 02:59:00,
2013-07-26 23:14:00,68.0,66.8,29.92,SE,135,0.0,-999.0,96,-99.99,,,0.00,Acu-Link.com,2013-07-27 03:14:00,
2013-07-26 23:30:00,67.5,66.3,29.93,SE,135,0.0,-999.0,96,-99.99,,,0.00,Acu-Link.com,2013-07-27 03:30:00,
2013-07-26 23:45:00,67.5,66.6,29.92,SE,135,0.0,-999.0,97,-99.99,,,0.00,Acu-Link.com,2013-07-27 03:45:00,